createdAt,value
2018-02-03T00:00:56.472Z,15.97
2018-02-03T00:03:24.356Z,23.07
2018-02-03T00:05:52.238Z,16.80
2018-02-03T00:08:20.083Z,24.00
2018-02-03T00:10:47.961Z,28.30
2018-02-03T00:13:15.797Z,19.50
2018-02-03T00:15:43.694Z,21.33
2018-02-03T00:18:11.543Z,27.70
2018-02-03T00:20:39.398Z,19.97
2018-02-03T00:23:07.277Z,28.47
2018-02-03T00:25:35.147Z,14.70
2018-02-03T00:28:03.034Z,26.73
2018-02-03T00:30:30.872Z,18.17
2018-02-03T00:32:58.721Z,29.10
2018-02-03T00:35:26.592Z,24.83
2018-02-03T00:37:54.439Z,39.67
2018-02-03T00:40:22.340Z,15.90
2018-02-03T00:42:50.236Z,16.87
2018-02-03T00:45:18.085Z,17.10
2018-02-03T00:47:45.934Z,22.37
2018-02-03T00:50:13.852Z,20.77
2018-02-03T00:52:41.732Z,18.03
2018-02-03T00:55:09.594Z,17.17
2018-02-03T00:57:39.166Z,17.00
2018-02-03T01:00:06.053Z,17.23
2018-02-03T01:02:33.264Z,20.33
2018-02-03T01:04:59.536Z,19.60
2018-02-03T01:07:26.162Z,20.80
2018-02-03T01:09:54.032Z,19.83
2018-02-03T01:12:21.913Z,21.47
2018-02-03T01:14:49.774Z,17.67
2018-02-03T01:17:17.648Z,23.00
2018-02-03T01:19:45.513Z,17.27
2018-02-03T01:22:13.116Z,18.40
2018-02-03T01:24:39.236Z,17.67
2018-02-03T01:27:06.128Z,19.00
2018-02-03T01:29:32.244Z,18.23
2018-02-03T01:31:58.333Z,19.47
2018-02-03T01:34:24.431Z,17.97
2018-02-03T01:36:50.584Z,18.57
2018-02-03T01:39:16.742Z,18.57
2018-02-03T01:41:42.895Z,18.67
2018-02-03T01:44:08.991Z,17.90
2018-02-03T01:46:35.968Z,19.90
2018-02-03T01:49:02.095Z,18.37
2018-02-03T01:51:28.533Z,20.50
2018-02-03T01:53:54.653Z,17.50
2018-02-03T01:56:20.831Z,20.57
2018-02-03T01:58:46.912Z,22.53
2018-02-03T02:01:13.860Z,25.73
2018-02-03T02:03:40.675Z,22.00
2018-02-03T02:06:06.800Z,26.77
2018-02-03T02:08:32.917Z,26.60
2018-02-03T02:10:59.116Z,18.57
2018-02-03T02:13:26.433Z,20.60
2018-02-03T02:15:52.520Z,28.10
2018-02-03T02:18:18.646Z,21.40
2018-02-03T02:20:44.727Z,20.57
2018-02-03T02:23:10.823Z,18.20
2018-02-03T02:25:36.956Z,22.30
2018-02-03T02:28:03.047Z,20.93
2018-02-03T02:30:29.170Z,20.47
2018-02-03T02:32:55.263Z,19.37
2018-02-03T02:35:21.434Z,21.13
2018-02-03T02:37:47.563Z,20.97
2018-02-03T02:40:14.384Z,22.87
2018-02-03T02:42:40.511Z,21.73
2018-02-03T02:45:06.806Z,22.47
2018-02-03T02:47:33.627Z,21.53
2018-02-03T02:49:59.849Z,21.43
2018-02-03T02:52:25.967Z,22.23
2018-02-03T02:54:52.099Z,21.23
2018-02-03T02:57:18.204Z,21.40
2018-02-03T02:59:44.302Z,21.97
2018-02-03T03:02:10.519Z,21.60
2018-02-03T03:04:36.767Z,22.10
2018-02-03T03:07:03.070Z,20.53
2018-02-03T03:09:29.913Z,19.77
2018-02-03T03:11:56.069Z,20.90
2018-02-03T03:14:22.928Z,21.30
2018-02-03T03:16:49.757Z,22.30
2018-02-03T03:19:15.857Z,21.90
2018-02-03T03:21:41.988Z,22.60
2018-02-03T03:24:08.068Z,19.00
2018-02-03T03:26:34.147Z,22.10
2018-02-03T03:29:00.264Z,19.57
2018-02-03T03:31:27.099Z,21.67
2018-02-03T03:33:53.205Z,20.97
2018-02-03T03:36:19.321Z,20.00
2018-02-03T03:38:45.420Z,20.80
2018-02-03T03:41:11.511Z,19.77
2018-02-03T03:43:37.636Z,21.10
2018-02-03T03:46:03.740Z,21.33
2018-02-03T03:48:29.834Z,20.00
2018-02-03T03:50:55.943Z,19.00
2018-02-03T03:53:22.076Z,20.20
2018-02-03T03:55:48.169Z,19.90
2018-02-03T03:58:14.296Z,21.80
2018-02-03T04:00:40.392Z,17.90
2018-02-03T04:03:06.508Z,22.20
2018-02-03T04:05:33.367Z,20.87
2018-02-03T04:08:00.208Z,19.67
2018-02-03T04:10:26.320Z,21.60
2018-02-03T04:12:52.419Z,18.80
2018-02-03T04:15:18.513Z,20.03
2018-02-03T04:17:44.641Z,21.50
2018-02-03T04:20:10.754Z,20.70
2018-02-03T04:22:36.849Z,19.83
2018-02-03T04:25:03.681Z,20.67
2018-02-03T04:27:29.792Z,20.13
2018-02-03T04:29:55.880Z,20.83
2018-02-03T04:32:22.743Z,18.00
2018-02-03T04:34:49.620Z,18.80
2018-02-03T04:37:15.725Z,20.17
2018-02-03T04:39:42.565Z,19.53
2018-02-03T04:42:08.677Z,20.20
2018-02-03T04:44:34.760Z,15.27
2018-02-03T04:47:01.593Z,13.13
2018-02-03T04:49:27.700Z,10.57
2018-02-03T04:51:53.801Z,9.17
2018-02-03T04:54:19.937Z,10.97
2018-02-03T04:56:46.023Z,10.50
2018-02-03T04:59:12.109Z,9.70
2018-02-03T05:01:38.946Z,11.00
2018-02-03T05:04:05.785Z,11.20
2018-02-03T05:06:31.901Z,12.30
2018-02-03T05:08:58.001Z,12.67
2018-02-03T05:11:24.114Z,11.40
2018-02-03T05:13:50.221Z,12.43
2018-02-03T05:16:16.313Z,13.00
2018-02-03T05:18:42.427Z,12.17
2018-02-03T05:21:08.500Z,13.00
2018-02-03T05:23:34.604Z,10.70
2018-02-03T05:26:01.457Z,12.40
2018-02-03T05:28:27.562Z,13.07
2018-02-03T05:30:53.699Z,11.93
2018-02-03T05:33:19.828Z,13.53
2018-02-03T05:35:45.938Z,13.40
2018-02-03T05:38:12.052Z,12.80
2018-02-03T05:40:38.949Z,13.20
2018-02-03T05:43:05.046Z,13.30
2018-02-03T05:45:31.889Z,13.77
2018-02-03T05:47:58.016Z,14.33
2018-02-03T05:50:24.143Z,12.93
2018-02-03T05:52:50.285Z,13.47
2018-02-03T05:55:16.415Z,12.27
2018-02-03T05:57:42.528Z,12.60
2018-02-03T06:00:08.632Z,11.93
2018-02-03T06:02:35.436Z,12.47
2018-02-03T06:05:01.552Z,12.57
2018-02-03T06:07:27.657Z,12.67
2018-02-03T06:09:53.789Z,13.60
2018-02-03T06:12:20.617Z,13.90
2018-02-03T06:14:46.750Z,13.10
2018-02-03T06:17:12.831Z,13.60
2018-02-03T06:19:38.936Z,12.90
2018-02-03T06:22:05.053Z,14.20
2018-02-03T06:24:31.135Z,12.80
2018-02-03T06:26:57.977Z,15.40
2018-02-03T06:29:24.072Z,14.40
2018-02-03T06:31:50.160Z,11.83
2018-02-03T06:34:16.257Z,11.23
2018-02-03T06:36:42.345Z,10.50
2018-02-03T06:39:09.191Z,10.70
2018-02-03T06:41:36.042Z,10.73
2018-02-03T06:44:02.125Z,9.70
2018-02-03T06:46:28.225Z,10.33
2018-02-03T06:48:55.089Z,8.97
2018-02-03T06:51:21.948Z,8.83
2018-02-03T06:53:48.780Z,8.60
2018-02-03T06:56:14.953Z,12.03
2018-02-03T06:58:41.033Z,9.47
2018-02-03T07:01:07.112Z,9.10
2018-02-03T07:03:33.973Z,8.60
2018-02-03T07:06:00.064Z,10.43
2018-02-03T07:08:26.166Z,9.13
2018-02-03T07:10:52.286Z,9.87
2018-02-03T07:13:18.385Z,10.27
2018-02-03T07:15:44.472Z,12.33
2018-02-03T07:18:10.638Z,11.93
2018-02-03T07:20:36.737Z,9.33
2018-02-03T07:23:02.835Z,10.20
2018-02-03T07:25:28.957Z,9.60
2018-02-03T07:27:55.077Z,9.70
2018-02-03T07:30:21.202Z,10.47
2018-02-03T07:32:47.351Z,11.13
2018-02-03T07:35:13.436Z,11.83
2018-02-03T07:37:39.516Z,11.40
2018-02-03T07:40:05.637Z,11.17
2018-02-03T07:42:32.467Z,10.30
2018-02-03T07:44:58.545Z,10.87
2018-02-03T07:47:24.656Z,11.10
2018-02-03T07:49:51.495Z,9.27
2018-02-03T07:52:17.617Z,10.17
2018-02-03T07:54:43.792Z,10.80
2018-02-03T07:57:10.680Z,9.63
2018-02-03T07:59:36.772Z,9.70
2018-02-03T08:02:02.881Z,9.97
2018-02-03T08:04:29.180Z,9.90
2018-02-03T08:06:55.268Z,7.77
2018-02-03T08:09:21.380Z,9.33
2018-02-03T08:11:47.474Z,8.40
2018-02-03T08:14:14.292Z,9.47
2018-02-03T08:16:40.415Z,8.57
2018-02-03T08:19:06.496Z,9.60
2018-02-03T08:21:35.030Z,12.63
2018-02-03T08:24:11.024Z,10.23
2018-02-03T08:26:38.117Z,10.50
2018-02-03T08:29:04.210Z,10.10
2018-02-03T08:31:30.369Z,11.37
2018-02-03T08:33:56.457Z,10.93
2018-02-03T08:36:23.293Z,8.30
2018-02-03T08:38:50.171Z,8.10
2018-02-03T08:41:16.266Z,6.70
2018-02-03T08:43:42.353Z,9.33
2018-02-03T08:46:08.480Z,7.03
2018-02-03T08:48:34.563Z,6.47
2018-02-03T08:51:01.309Z,7.93
2018-02-03T08:53:27.442Z,7.03
2018-02-03T08:55:53.532Z,7.40
2018-02-03T08:58:20.408Z,8.20
2018-02-03T09:00:46.588Z,6.50
2018-02-03T09:03:12.682Z,6.87
2018-02-03T09:05:38.765Z,7.50
2018-02-03T09:08:04.864Z,7.57
2018-02-03T09:10:30.945Z,6.67
2018-02-03T09:12:57.051Z,6.40
2018-02-03T09:15:23.192Z,6.70
2018-02-03T09:17:49.276Z,7.30
2018-02-03T09:20:15.391Z,6.50
2018-02-03T09:22:41.509Z,6.20
2018-02-03T09:25:07.588Z,4.87
2018-02-03T09:27:33.676Z,4.20
2018-02-03T09:29:59.784Z,4.40
2018-02-03T09:32:25.852Z,4.77
2018-02-03T09:34:51.952Z,6.40
2018-02-03T09:37:18.140Z,5.07
2018-02-03T09:39:44.261Z,5.63
2018-02-03T09:42:12.136Z,4.67
2018-02-03T09:44:39.997Z,5.80
2018-02-03T09:47:06.066Z,5.10
2018-02-03T09:49:32.135Z,5.77
2018-02-03T09:51:58.233Z,5.10
2018-02-03T09:54:24.304Z,4.80
2018-02-03T09:56:50.421Z,5.40
2018-02-03T09:59:16.581Z,5.17
2018-02-03T10:01:42.704Z,5.73
2018-02-03T10:04:08.785Z,5.63
2018-02-03T10:06:34.874Z,5.50
2018-02-03T10:09:00.944Z,5.10
2018-02-03T10:11:27.065Z,5.73
2018-02-03T10:13:53.187Z,5.40
2018-02-03T10:16:19.263Z,5.67
2018-02-03T10:18:45.541Z,6.30
2018-02-03T10:21:11.783Z,5.97
2018-02-03T10:23:37.865Z,6.20
2018-02-03T10:26:03.945Z,6.10
2018-02-03T10:28:30.782Z,5.50
2018-02-03T10:30:56.864Z,7.00
2018-02-03T10:33:23.425Z,7.10
2018-02-03T10:35:49.657Z,7.40
2018-02-03T10:38:15.732Z,9.60
2018-02-03T10:40:41.834Z,9.93
2018-02-03T10:43:07.928Z,7.63
2018-02-03T10:45:34.027Z,10.60
2018-02-03T10:48:00.108Z,9.13
2018-02-03T10:50:27.011Z,7.67
2018-02-03T10:52:53.240Z,9.37
2018-02-03T10:55:19.320Z,10.33
2018-02-03T10:57:45.504Z,9.40
2018-02-03T11:00:11.648Z,9.20
2018-02-03T11:02:40.543Z,8.13
2018-02-03T11:05:08.399Z,8.60
2018-02-03T11:07:36.246Z,7.90
2018-02-03T11:10:04.094Z,8.50
2018-02-03T11:12:31.985Z,10.43
2018-02-03T11:14:59.818Z,12.20
2018-02-03T11:17:27.677Z,9.87
2018-02-03T11:19:55.545Z,9.47
2018-02-03T11:22:23.443Z,10.00
2018-02-03T11:24:51.311Z,8.77
2018-02-03T11:27:19.179Z,9.70
2018-02-03T11:29:47.063Z,8.43
2018-02-03T11:32:14.912Z,9.63
2018-02-03T11:34:42.768Z,9.60
2018-02-03T11:37:10.706Z,11.50
2018-02-03T11:39:38.950Z,9.47
2018-02-03T11:42:06.855Z,10.23
2018-02-03T11:44:34.697Z,11.43
2018-02-03T11:47:02.575Z,11.67
2018-02-03T11:49:30.474Z,10.63
2018-02-03T11:51:58.306Z,10.40
2018-02-03T11:54:26.154Z,11.97
2018-02-03T11:56:54.039Z,11.60
2018-02-03T11:59:21.963Z,11.53
2018-02-03T12:01:49.855Z,10.70
2018-02-03T12:04:17.852Z,10.67
2018-02-03T12:06:45.736Z,10.80
2018-02-03T12:09:13.618Z,12.43
2018-02-03T12:11:41.537Z,9.47
2018-02-03T12:14:09.392Z,10.17
2018-02-03T12:16:37.242Z,10.27
2018-02-03T12:19:05.125Z,11.00
2018-02-03T12:21:32.977Z,10.83
2018-02-03T12:24:00.811Z,11.87
2018-02-03T12:26:28.710Z,12.00
2018-02-03T12:28:56.640Z,18.27
2018-02-03T12:31:24.492Z,13.10
2018-02-03T12:33:52.404Z,13.43
2018-02-03T12:36:20.276Z,15.80
2018-02-03T12:38:48.102Z,15.10
2018-02-03T12:41:15.968Z,12.37
2018-02-03T12:43:43.832Z,15.20
2018-02-03T12:46:11.694Z,16.17
2018-02-03T12:48:39.575Z,14.37
2018-02-03T12:51:07.466Z,17.20
2018-02-03T12:53:35.321Z,19.00
2018-02-03T12:56:03.192Z,18.60
2018-02-03T12:58:31.096Z,13.10
2018-02-03T13:00:58.955Z,21.50
2018-02-03T13:03:26.849Z,19.30
2018-02-03T13:05:54.748Z,18.87
2018-02-03T13:08:22.748Z,10.30
2018-02-03T13:10:50.744Z,12.17
2018-02-03T13:13:18.607Z,12.50
2018-02-03T13:15:46.464Z,11.70
2018-02-03T13:18:14.340Z,11.07
2018-02-03T13:20:42.209Z,11.97
2018-02-03T13:23:10.103Z,11.13
2018-02-03T13:25:37.936Z,15.77
2018-02-03T13:28:05.769Z,13.20
2018-02-03T13:30:33.660Z,13.07
2018-02-03T13:33:01.510Z,11.13
2018-02-03T13:35:29.375Z,8.93
2018-02-03T13:37:57.277Z,9.37
2018-02-03T13:40:25.156Z,12.70
2018-02-03T13:42:53.060Z,11.60
2018-02-03T13:45:20.911Z,14.50
2018-02-03T13:47:48.800Z,15.47
2018-02-03T13:50:16.655Z,12.00
2018-02-03T13:52:44.552Z,11.50
2018-02-03T13:55:12.438Z,11.57
2018-02-03T13:57:40.300Z,12.70
2018-02-03T14:00:08.173Z,11.00
2018-02-03T14:02:36.045Z,12.30
2018-02-03T14:05:03.907Z,16.60
2018-02-03T14:07:32.048Z,13.20
2018-02-03T14:09:59.932Z,11.40
2018-02-03T14:12:27.820Z,13.47
2018-02-03T14:14:56.016Z,26.13
2018-02-03T14:17:23.939Z,12.53
2018-02-03T14:19:51.839Z,13.77
2018-02-03T14:22:19.708Z,10.80
2018-02-03T14:24:47.605Z,11.23
2018-02-03T14:27:15.431Z,12.17
2018-02-03T14:29:43.341Z,10.50
2018-02-03T14:32:11.237Z,9.37
2018-02-03T14:34:39.116Z,12.00
2018-02-03T14:37:06.970Z,10.63
2018-02-03T14:39:35.391Z,14.43
2018-02-03T14:42:03.281Z,11.90
2018-02-03T14:44:31.131Z,12.43
2018-02-03T14:46:59.273Z,11.83
2018-02-03T14:49:27.129Z,16.40
2018-02-03T14:51:55.023Z,14.63
2018-02-03T14:54:23.033Z,10.93
2018-02-03T14:56:50.892Z,15.37
2018-02-03T14:59:18.758Z,12.47
2018-02-03T15:01:46.668Z,14.50
2018-02-03T15:04:14.564Z,13.67
2018-02-03T15:06:42.461Z,12.17
2018-02-03T15:09:10.351Z,11.80
2018-02-03T15:11:38.865Z,15.90
2018-02-03T15:14:06.769Z,11.87
2018-02-03T15:16:34.652Z,11.73
2018-02-03T15:19:02.568Z,12.13
2018-02-03T15:21:30.443Z,13.90
2018-02-03T15:23:58.307Z,16.63
2018-02-03T15:26:26.169Z,11.53
2018-02-03T15:28:55.087Z,12.20
2018-02-03T15:31:22.989Z,11.50
2018-02-03T15:33:50.918Z,11.47
2018-02-03T15:36:18.977Z,11.50
2018-02-03T15:38:46.850Z,12.03
2018-02-03T15:41:14.700Z,11.20
2018-02-03T15:43:42.559Z,16.70
2018-02-03T15:46:10.437Z,12.93
2018-02-03T15:48:38.436Z,10.83
2018-02-03T15:51:06.378Z,11.30
2018-02-03T15:53:34.356Z,11.80
2018-02-03T15:56:02.196Z,11.90
2018-02-03T15:58:30.058Z,10.60
2018-02-03T16:00:57.963Z,11.63
2018-02-03T16:03:25.834Z,12.20
2018-02-03T16:05:53.793Z,13.10
2018-02-03T16:08:21.690Z,12.70
2018-02-03T16:10:49.589Z,15.30
2018-02-03T16:13:17.482Z,13.27
2018-02-03T16:15:45.344Z,12.13
2018-02-03T16:18:13.210Z,9.67
2018-02-03T16:20:41.088Z,11.23
2018-02-03T16:23:09.504Z,14.27
2018-02-03T16:25:37.389Z,13.57
2018-02-03T16:28:05.373Z,11.40
2018-02-03T16:30:33.265Z,13.20
2018-02-03T16:33:01.163Z,10.67
2018-02-03T16:35:29.014Z,10.63
2018-02-03T16:37:56.874Z,10.37
2018-02-03T16:40:24.743Z,12.20
2018-02-03T16:42:52.879Z,13.97
2018-02-03T16:45:20.800Z,13.10
2018-02-03T16:47:48.665Z,16.47
2018-02-03T16:50:16.540Z,11.80
2018-02-03T16:52:44.388Z,12.20
2018-02-03T16:55:12.245Z,12.07
2018-02-03T16:57:40.095Z,12.73
2018-02-03T17:00:07.963Z,13.00
2018-02-03T17:02:35.864Z,12.93
2018-02-03T17:05:03.757Z,10.80
2018-02-03T17:07:31.660Z,11.37
2018-02-03T17:09:59.552Z,12.47
2018-02-03T17:12:27.399Z,13.47
2018-02-03T17:14:55.313Z,11.67
2018-02-03T17:17:23.216Z,9.63
2018-02-03T17:19:51.052Z,11.47
2018-02-03T17:22:18.925Z,11.90
2018-02-03T17:24:46.764Z,12.00
2018-02-03T17:27:14.627Z,10.63
2018-02-03T17:29:42.704Z,9.37
2018-02-03T17:32:10.553Z,9.10
2018-02-03T17:34:38.452Z,10.27
2018-02-03T17:37:12.395Z,9.80
2018-02-03T17:39:40.313Z,7.93
2018-02-03T17:42:08.164Z,13.53
2018-02-03T17:44:36.000Z,12.50
2018-02-03T17:47:03.897Z,11.20
2018-02-03T17:49:31.771Z,11.80
2018-02-03T17:51:59.639Z,12.80
2018-02-03T17:54:27.525Z,11.73
2018-02-03T17:57:01.589Z,12.57
2018-02-03T17:59:29.445Z,11.90
2018-02-03T18:01:57.364Z,10.23
2018-02-03T18:04:25.282Z,10.30
2018-02-03T18:06:59.312Z,10.27
2018-02-03T18:09:27.223Z,11.80
2018-02-03T18:11:55.087Z,12.80
2018-02-03T18:14:22.950Z,12.63
2018-02-03T18:16:50.823Z,11.00
2018-02-03T18:19:18.675Z,9.60
2018-02-03T18:21:46.559Z,9.77
2018-02-03T18:24:14.395Z,9.70
2018-02-03T18:26:42.240Z,8.00
2018-02-03T18:29:10.121Z,8.90
2018-02-03T18:31:37.976Z,18.20
2018-02-03T18:34:05.841Z,28.40
2018-02-03T18:36:33.683Z,13.20
2018-02-03T18:39:01.537Z,9.07
2018-02-03T18:41:29.416Z,9.67
2018-02-03T18:43:57.251Z,8.83
2018-02-03T18:46:25.102Z,9.30
2018-02-03T18:48:53.023Z,8.97
2018-02-03T18:51:20.871Z,10.70
2018-02-03T18:53:48.723Z,10.63
2018-02-03T18:56:16.586Z,11.07
2018-02-03T18:58:44.436Z,10.07
2018-02-03T19:01:12.267Z,9.63
2018-02-03T19:03:40.124Z,10.43
2018-02-03T19:06:07.978Z,9.53
2018-02-03T19:08:35.832Z,10.53
2018-02-03T19:11:03.739Z,9.27
2018-02-03T19:13:31.587Z,9.87
2018-02-03T19:15:59.428Z,10.53
2018-02-03T19:18:27.299Z,8.80
2018-02-03T19:20:55.126Z,9.50
2018-02-03T19:23:23.050Z,8.80
2018-02-03T19:25:51.336Z,9.20
2018-02-03T19:28:19.211Z,8.30
2018-02-03T19:30:47.079Z,9.93
2018-02-03T19:33:14.952Z,8.63
2018-02-03T19:35:42.788Z,10.57
2018-02-03T19:38:10.681Z,10.40
2018-02-03T19:40:38.715Z,9.37
2018-02-03T19:43:06.571Z,10.97
2018-02-03T19:45:34.413Z,11.70
2018-02-03T19:48:02.283Z,12.00
2018-02-03T19:50:30.126Z,9.10
2018-02-03T19:52:58.012Z,9.67
2018-02-03T19:55:25.899Z,9.03
2018-02-03T19:57:53.804Z,8.13
2018-02-03T20:00:21.640Z,8.80
2018-02-03T20:02:49.552Z,8.80
2018-02-03T20:05:17.395Z,10.17
2018-02-03T20:07:45.252Z,9.10
2018-02-03T20:10:13.178Z,9.40
2018-02-03T20:12:41.083Z,9.60
2018-02-03T20:15:09.045Z,9.07
2018-02-03T20:17:36.916Z,11.90
2018-02-03T20:20:04.765Z,16.10
2018-02-03T20:22:33.506Z,14.47
2018-02-03T20:25:01.363Z,8.10
2018-02-03T20:27:29.195Z,8.77
2018-02-03T20:29:57.124Z,10.40
2018-02-03T20:32:24.994Z,8.07
2018-02-03T20:34:52.880Z,9.37
2018-02-03T20:37:20.791Z,9.47
2018-02-03T20:39:48.665Z,6.57
2018-02-03T20:42:16.525Z,6.90
2018-02-03T20:44:44.369Z,6.40
2018-02-03T20:47:12.266Z,8.70
2018-02-03T20:49:40.098Z,8.70
2018-02-03T20:52:07.956Z,9.90
2018-02-03T20:54:35.817Z,10.93
2018-02-03T20:57:03.755Z,9.80
2018-02-03T20:59:31.605Z,8.00
2018-02-03T21:01:59.539Z,14.83
2018-02-03T21:04:27.394Z,11.50
2018-02-03T21:06:55.272Z,8.80
2018-02-03T21:09:23.191Z,9.77
2018-02-03T21:11:51.032Z,8.63
2018-02-03T21:14:18.912Z,7.73
2018-02-03T21:16:46.807Z,11.03
2018-02-03T21:19:14.629Z,6.73
2018-02-03T21:21:42.479Z,10.60
2018-02-03T21:24:10.347Z,6.80
2018-02-03T21:26:38.247Z,9.40
2018-02-03T21:29:06.093Z,8.47
2018-02-03T21:31:34.900Z,6.80
2018-02-03T21:34:02.754Z,8.30
2018-02-03T21:36:30.611Z,7.27
2018-02-03T21:38:58.804Z,6.20
2018-02-03T21:41:26.687Z,7.03
2018-02-03T21:43:54.542Z,9.00
2018-02-03T21:46:22.447Z,7.23
2018-02-03T21:48:50.332Z,6.47
2018-02-03T21:51:18.217Z,6.70
2018-02-03T21:53:46.147Z,7.27
2018-02-03T21:56:14.062Z,7.30
2018-02-03T21:58:41.916Z,7.60
2018-02-03T22:01:09.783Z,7.70
2018-02-03T22:03:37.804Z,16.63
2018-02-03T22:06:05.648Z,9.57
2018-02-03T22:08:33.500Z,7.43
2018-02-03T22:11:01.344Z,7.77
2018-02-03T22:13:29.197Z,8.40
2018-02-03T22:15:57.188Z,7.10
2018-02-03T22:18:25.031Z,8.00
2018-02-03T22:20:52.884Z,6.90
2018-02-03T22:23:20.756Z,7.03
2018-02-03T22:25:48.595Z,7.27
2018-02-03T22:28:16.500Z,7.13
2018-02-03T22:30:44.384Z,6.47
2018-02-03T22:33:12.304Z,7.63
2018-02-03T22:35:40.154Z,6.10
2018-02-03T22:38:08.031Z,6.17
2018-02-03T22:40:35.852Z,4.97
2018-02-03T22:43:03.704Z,10.17
2018-02-03T22:45:31.576Z,7.47
2018-02-03T22:47:59.469Z,5.80
2018-02-03T22:50:27.407Z,6.33
2018-02-03T22:52:55.979Z,5.77
2018-02-03T22:55:23.921Z,6.13
2018-02-03T22:57:51.810Z,5.30
2018-02-03T23:00:19.761Z,11.67
2018-02-03T23:02:54.588Z,6.40
2018-02-03T23:05:22.503Z,20.73
2018-02-03T23:07:50.373Z,6.77
2018-02-03T23:10:18.236Z,5.73
2018-02-03T23:12:46.079Z,5.70
2018-02-03T23:15:14.038Z,9.17
2018-02-03T23:17:41.920Z,6.60
2018-02-03T23:20:09.815Z,6.03
2018-02-03T23:22:37.680Z,5.67
2018-02-03T23:25:05.507Z,5.73
2018-02-03T23:27:33.373Z,6.10
2018-02-03T23:30:01.314Z,6.20
2018-02-03T23:32:29.201Z,5.67
2018-02-03T23:34:57.051Z,6.20
2018-02-03T23:37:24.916Z,5.80
2018-02-03T23:39:52.807Z,5.20
2018-02-03T23:42:20.773Z,6.73
2018-02-03T23:44:48.748Z,8.43
2018-02-03T23:47:16.624Z,6.73
2018-02-03T23:49:44.555Z,7.10
2018-02-03T23:52:12.460Z,5.90
2018-02-03T23:54:40.292Z,6.53
2018-02-03T23:57:08.173Z,13.93
2018-02-03T23:59:36.039Z,5.80
